sensor_id;sensor_type;location;lat;lon;timestamp;P1;durP1;ratioP1;P2;durP2;ratioP2
35056;SDS011;21241;51.828;19.574;2023-01-29T00:02:17;10.40;;;9.60;;
35056;SDS011;21241;51.828;19.574;2023-01-29T00:04:45;10.30;;;9.50;;
35056;SDS011;21241;51.828;19.574;2023-01-29T00:07:13;11.10;;;10.20;;
35056;SDS011;21241;51.828;19.574;2023-01-29T00:09:41;10.20;;;9.30;;
35056;SDS011;21241;51.828;19.574;2023-01-29T00:12:08;11.50;;;10.60;;
35056;SDS011;21241;51.828;19.574;2023-01-29T00:14:36;12.90;;;11.90;;
35056;SDS011;21241;51.828;19.574;2023-01-29T00:17:04;11.30;;;10.30;;
35056;SDS011;21241;51.828;19.574;2023-01-29T00:19:32;16.00;;;14.60;;
35056;SDS011;21241;51.828;19.574;2023-01-29T00:21:59;16.10;;;14.70;;
35056;SDS011;21241;51.828;19.574;2023-01-29T00:24:27;13.30;;;12.20;;
35056;SDS011;21241;51.828;19.574;2023-01-29T00:26:55;13.30;;;12.20;;
35056;SDS011;21241;51.828;19.574;2023-01-29T00:29:22;12.90;;;11.70;;
35056;SDS011;21241;51.828;19.574;2023-01-29T00:31:50;14.50;;;13.20;;
35056;SDS011;21241;51.828;19.574;2023-01-29T00:34:18;13.40;;;12.20;;
35056;SDS011;21241;51.828;19.574;2023-01-29T00:36:46;13.40;;;12.30;;
35056;SDS011;21241;51.828;19.574;2023-01-29T00:39:13;19.50;;;17.60;;
35056;SDS011;21241;51.828;19.574;2023-01-29T00:41:41;15.80;;;14.40;;
35056;SDS011;21241;51.828;19.574;2023-01-29T00:44:28;12.80;;;11.80;;
35056;SDS011;21241;51.828;19.574;2023-01-29T00:47:14;10.80;;;9.90;;
35056;SDS011;21241;51.828;19.574;2023-01-29T00:49:58;11.80;;;10.80;;
35056;SDS011;21241;51.828;19.574;2023-01-29T00:52:31;12.10;;;11.10;;
35056;SDS011;21241;51.828;19.574;2023-01-29T00:54:59;11.60;;;10.60;;
35056;SDS011;21241;51.828;19.574;2023-01-29T00:57:28;14.20;;;12.90;;
35056;SDS011;21241;51.828;19.574;2023-01-29T00:59:57;12.10;;;11.10;;
35056;SDS011;21241;51.828;19.574;2023-01-29T01:02:25;10.90;;;10.00;;
35056;SDS011;21241;51.828;19.574;2023-01-29T01:05:14;10.60;;;9.80;;
35056;SDS011;21241;51.828;19.574;2023-01-29T01:07:46;10.40;;;9.60;;
35056;SDS011;21241;51.828;19.574;2023-01-29T01:10:16;13.90;;;12.60;;
35056;SDS011;21241;51.828;19.574;2023-01-29T01:15:36;10.80;;;9.90;;
35056;SDS011;21241;51.828;19.574;2023-01-29T01:18:05;10.70;;;9.80;;
35056;SDS011;21241;51.828;19.574;2023-01-29T01:20:33;11.60;;;10.60;;
35056;SDS011;21241;51.828;19.574;2023-01-29T01:23:03;14.40;;;13.00;;
35056;SDS011;21241;51.828;19.574;2023-01-29T01:25:31;16.00;;;14.50;;
35056;SDS011;21241;51.828;19.574;2023-01-29T01:27:59;11.90;;;10.90;;
35056;SDS011;21241;51.828;19.574;2023-01-29T01:30:30;11.80;;;10.80;;
35056;SDS011;21241;51.828;19.574;2023-01-29T01:33:00;11.30;;;10.40;;
35056;SDS011;21241;51.828;19.574;2023-01-29T01:35:28;11.20;;;10.30;;
35056;SDS011;21241;51.828;19.574;2023-01-29T01:37:56;11.00;;;10.10;;
35056;SDS011;21241;51.828;19.574;2023-01-29T01:40:24;11.70;;;10.80;;
35056;SDS011;21241;51.828;19.574;2023-01-29T01:42:53;10.60;;;9.80;;
35056;SDS011;21241;51.828;19.574;2023-01-29T01:45:31;11.10;;;10.20;;
35056;SDS011;21241;51.828;19.574;2023-01-29T01:48:02;10.50;;;9.70;;
35056;SDS011;21241;51.828;19.574;2023-01-29T01:53:14;13.50;;;12.30;;
35056;SDS011;21241;51.828;19.574;2023-01-29T01:55:47;17.90;;;16.10;;
35056;SDS011;21241;51.828;19.574;2023-01-29T01:58:21;10.90;;;10.00;;
35056;SDS011;21241;51.828;19.574;2023-01-29T02:00:51;9.50;;;8.80;;
35056;SDS011;21241;51.828;19.574;2023-01-29T02:03:19;14.70;;;13.20;;
35056;SDS011;21241;51.828;19.574;2023-01-29T02:06:08;13.60;;;12.40;;
35056;SDS011;21241;51.828;19.574;2023-01-29T02:08:56;16.50;;;14.60;;
35056;SDS011;21241;51.828;19.574;2023-01-29T02:11:55;11.10;;;10.10;;
35056;SDS011;21241;51.828;19.574;2023-01-29T02:14:22;11.00;;;10.00;;
35056;SDS011;21241;51.828;19.574;2023-01-29T02:16:51;13.50;;;12.30;;
35056;SDS011;21241;51.828;19.574;2023-01-29T02:19:23;14.40;;;13.10;;
35056;SDS011;21241;51.828;19.574;2023-01-29T02:22:05;11.50;;;10.60;;
35056;SDS011;21241;51.828;19.574;2023-01-29T02:27:45;11.90;;;10.90;;
35056;SDS011;21241;51.828;19.574;2023-01-29T02:32:59;11.90;;;11.00;;
35056;SDS011;21241;51.828;19.574;2023-01-29T02:35:34;10.60;;;9.80;;
35056;SDS011;21241;51.828;19.574;2023-01-29T02:41:09;10.90;;;10.00;;
35056;SDS011;21241;51.828;19.574;2023-01-29T02:44:16;12.60;;;11.50;;
35056;SDS011;21241;51.828;19.574;2023-01-29T02:49:42;13.00;;;12.00;;
35056;SDS011;21241;51.828;19.574;2023-01-29T02:52:15;12.50;;;11.50;;
35056;SDS011;21241;51.828;19.574;2023-01-29T02:54:59;13.40;;;12.40;;
35056;SDS011;21241;51.828;19.574;2023-01-29T02:57:36;14.50;;;13.30;;
35056;SDS011;21241;51.828;19.574;2023-01-29T03:02:53;19.50;;;17.90;;
35056;SDS011;21241;51.828;19.574;2023-01-29T03:05:38;15.60;;;14.30;;
35056;SDS011;21241;51.828;19.574;2023-01-29T03:08:19;14.40;;;13.30;;
35056;SDS011;21241;51.828;19.574;2023-01-29T03:10:52;15.60;;;14.30;;
35056;SDS011;21241;51.828;19.574;2023-01-29T03:19:01;15.80;;;14.50;;
35056;SDS011;21241;51.828;19.574;2023-01-29T03:21:33;15.60;;;14.40;;
35056;SDS011;21241;51.828;19.574;2023-01-29T03:27:56;15.50;;;14.10;;
35056;SDS011;21241;51.828;19.574;2023-01-29T03:30:49;15.10;;;13.80;;
35056;SDS011;21241;51.828;19.574;2023-01-29T03:33:49;14.70;;;13.50;;
35056;SDS011;21241;51.828;19.574;2023-01-29T03:36:36;14.30;;;13.20;;
35056;SDS011;21241;51.828;19.574;2023-01-29T03:39:12;14.60;;;13.40;;
35056;SDS011;21241;51.828;19.574;2023-01-29T03:45:02;14.80;;;13.70;;
35056;SDS011;21241;51.828;19.574;2023-01-29T03:47:22;13.60;;;12.50;;
35056;SDS011;21241;51.828;19.574;2023-01-29T03:49:58;13.90;;;12.80;;
35056;SDS011;21241;51.828;19.574;2023-01-29T03:52:47;14.70;;;13.60;;
35056;SDS011;21241;51.828;19.574;2023-01-29T03:55:44;14.20;;;13.10;;
35056;SDS011;21241;51.828;19.574;2023-01-29T03:58:31;13.30;;;12.30;;
35056;SDS011;21241;51.828;19.574;2023-01-29T04:01:05;13.60;;;12.50;;
35056;SDS011;21241;51.828;19.574;2023-01-29T04:03:42;13.90;;;12.80;;
35056;SDS011;21241;51.828;19.574;2023-01-29T04:06:20;13.70;;;12.50;;
35056;SDS011;21241;51.828;19.574;2023-01-29T04:11:41;13.60;;;12.50;;
35056;SDS011;21241;51.828;19.574;2023-01-29T04:14:11;13.40;;;12.30;;
35056;SDS011;21241;51.828;19.574;2023-01-29T04:16:41;13.40;;;12.40;;
35056;SDS011;21241;51.828;19.574;2023-01-29T04:19:17;14.40;;;13.30;;
35056;SDS011;21241;51.828;19.574;2023-01-29T04:21:45;14.50;;;13.20;;
35056;SDS011;21241;51.828;19.574;2023-01-29T04:24:15;13.70;;;12.70;;
35056;SDS011;21241;51.828;19.574;2023-01-29T04:32:13;13.90;;;12.70;;
35056;SDS011;21241;51.828;19.574;2023-01-29T04:35:05;13.50;;;12.40;;
35056;SDS011;21241;51.828;19.574;2023-01-29T04:43:07;15.00;;;13.70;;
35056;SDS011;21241;51.828;19.574;2023-01-29T04:45:53;14.90;;;13.70;;
35056;SDS011;21241;51.828;19.574;2023-01-29T04:48:42;16.60;;;15.30;;
35056;SDS011;21241;51.828;19.574;2023-01-29T04:51:23;14.80;;;13.60;;
35056;SDS011;21241;51.828;19.574;2023-01-29T04:56:40;17.10;;;15.70;;
35056;SDS011;21241;51.828;19.574;2023-01-29T04:59:11;15.60;;;14.30;;
35056;SDS011;21241;51.828;19.574;2023-01-29T05:01:44;15.70;;;14.50;;
35056;SDS011;21241;51.828;19.574;2023-01-29T05:04:13;14.90;;;13.70;;
35056;SDS011;21241;51.828;19.574;2023-01-29T05:06:41;16.40;;;15.00;;
35056;SDS011;21241;51.828;19.574;2023-01-29T05:09:13;16.10;;;14.80;;
35056;SDS011;21241;51.828;19.574;2023-01-29T05:11:42;15.70;;;14.40;;
35056;SDS011;21241;51.828;19.574;2023-01-29T05:14:11;15.70;;;14.40;;
35056;SDS011;21241;51.828;19.574;2023-01-29T05:16:41;15.40;;;14.10;;
35056;SDS011;21241;51.828;19.574;2023-01-29T05:19:11;16.30;;;15.00;;
35056;SDS011;21241;51.828;19.574;2023-01-29T05:21:41;15.10;;;13.80;;
35056;SDS011;21241;51.828;19.574;2023-01-29T05:24:21;15.60;;;14.30;;
35056;SDS011;21241;51.828;19.574;2023-01-29T05:26:51;15.30;;;14.00;;
35056;SDS011;21241;51.828;19.574;2023-01-29T05:29:39;15.20;;;14.00;;
35056;SDS011;21241;51.828;19.574;2023-01-29T05:32:10;14.40;;;13.20;;
35056;SDS011;21241;51.828;19.574;2023-01-29T05:34:37;17.10;;;15.70;;
35056;SDS011;21241;51.828;19.574;2023-01-29T05:37:05;15.30;;;14.00;;
35056;SDS011;21241;51.828;19.574;2023-01-29T05:39:33;16.00;;;14.70;;
35056;SDS011;21241;51.828;19.574;2023-01-29T05:42:01;18.80;;;17.20;;
35056;SDS011;21241;51.828;19.574;2023-01-29T05:44:29;16.30;;;15.00;;
35056;SDS011;21241;51.828;19.574;2023-01-29T05:46:56;15.80;;;14.50;;
35056;SDS011;21241;51.828;19.574;2023-01-29T05:49:24;16.30;;;14.90;;
35056;SDS011;21241;51.828;19.574;2023-01-29T05:51:52;17.00;;;15.60;;
35056;SDS011;21241;51.828;19.574;2023-01-29T05:54:20;16.20;;;14.90;;
35056;SDS011;21241;51.828;19.574;2023-01-29T05:56:47;15.30;;;14.10;;
35056;SDS011;21241;51.828;19.574;2023-01-29T05:59:15;17.10;;;15.70;;
35056;SDS011;21241;51.828;19.574;2023-01-29T06:01:43;16.10;;;14.70;;
35056;SDS011;21241;51.828;19.574;2023-01-29T06:04:11;16.70;;;15.30;;
35056;SDS011;21241;51.828;19.574;2023-01-29T06:06:39;15.80;;;14.50;;
35056;SDS011;21241;51.828;19.574;2023-01-29T06:09:08;16.80;;;15.20;;
35056;SDS011;21241;51.828;19.574;2023-01-29T06:11:37;16.00;;;14.60;;
35056;SDS011;21241;51.828;19.574;2023-01-29T06:14:06;17.30;;;15.90;;
35056;SDS011;21241;51.828;19.574;2023-01-29T06:16:33;15.90;;;14.60;;
35056;SDS011;21241;51.828;19.574;2023-01-29T06:19:01;17.10;;;15.70;;
35056;SDS011;21241;51.828;19.574;2023-01-29T06:21:29;16.10;;;14.90;;
35056;SDS011;21241;51.828;19.574;2023-01-29T06:23:57;16.10;;;14.80;;
35056;SDS011;21241;51.828;19.574;2023-01-29T06:26:24;18.10;;;16.60;;
35056;SDS011;21241;51.828;19.574;2023-01-29T06:28:52;18.00;;;16.60;;
35056;SDS011;21241;51.828;19.574;2023-01-29T06:31:20;17.30;;;16.00;;
35056;SDS011;21241;51.828;19.574;2023-01-29T06:34:08;20.00;;;18.50;;
35056;SDS011;21241;51.828;19.574;2023-01-29T06:36:35;65.30;;;59.70;;
35056;SDS011;21241;51.828;19.574;2023-01-29T06:39:03;42.60;;;39.30;;
35056;SDS011;21241;51.828;19.574;2023-01-29T06:41:31;35.80;;;32.10;;
35056;SDS011;21241;51.828;19.574;2023-01-29T06:43:59;44.20;;;40.20;;
35056;SDS011;21241;51.828;19.574;2023-01-29T06:46:26;29.80;;;27.00;;
35056;SDS011;21241;51.828;19.574;2023-01-29T06:48:56;23.80;;;21.80;;
35056;SDS011;21241;51.828;19.574;2023-01-29T06:51:25;54.80;;;49.90;;
35056;SDS011;21241;51.828;19.574;2023-01-29T06:53:53;17.60;;;16.20;;
35056;SDS011;21241;51.828;19.574;2023-01-29T06:56:22;22.00;;;19.60;;
35056;SDS011;21241;51.828;19.574;2023-01-29T06:58:50;21.70;;;19.70;;
35056;SDS011;21241;51.828;19.574;2023-01-29T07:01:18;18.50;;;16.80;;
35056;SDS011;21241;51.828;19.574;2023-01-29T07:04:02;19.60;;;17.80;;
35056;SDS011;21241;51.828;19.574;2023-01-29T07:06:31;21.00;;;19.00;;
35056;SDS011;21241;51.828;19.574;2023-01-29T07:08:59;20.90;;;19.10;;
35056;SDS011;21241;51.828;19.574;2023-01-29T07:11:27;18.60;;;16.80;;
35056;SDS011;21241;51.828;19.574;2023-01-29T07:13:55;15.00;;;13.80;;
35056;SDS011;21241;51.828;19.574;2023-01-29T07:16:22;16.80;;;15.20;;
35056;SDS011;21241;51.828;19.574;2023-01-29T07:18:51;16.90;;;15.40;;
35056;SDS011;21241;51.828;19.574;2023-01-29T07:21:19;16.90;;;15.40;;
35056;SDS011;21241;51.828;19.574;2023-01-29T07:23:46;16.80;;;15.30;;
35056;SDS011;21241;51.828;19.574;2023-01-29T07:26:14;23.40;;;21.50;;
35056;SDS011;21241;51.828;19.574;2023-01-29T07:28:42;13.90;;;12.70;;
35056;SDS011;21241;51.828;19.574;2023-01-29T07:31:10;15.50;;;14.20;;
35056;SDS011;21241;51.828;19.574;2023-01-29T07:33:39;18.10;;;16.50;;
35056;SDS011;21241;51.828;19.574;2023-01-29T07:36:09;14.70;;;13.40;;
35056;SDS011;21241;51.828;19.574;2023-01-29T07:38:37;15.80;;;14.50;;
35056;SDS011;21241;51.828;19.574;2023-01-29T07:41:05;13.40;;;12.30;;
35056;SDS011;21241;51.828;19.574;2023-01-29T07:43:32;13.00;;;11.80;;
35056;SDS011;21241;51.828;19.574;2023-01-29T07:46:01;13.00;;;11.90;;
35056;SDS011;21241;51.828;19.574;2023-01-29T07:48:30;13.10;;;11.90;;
35056;SDS011;21241;51.828;19.574;2023-01-29T07:50:57;12.00;;;10.90;;
35056;SDS011;21241;51.828;19.574;2023-01-29T07:53:26;13.00;;;11.80;;
35056;SDS011;21241;51.828;19.574;2023-01-29T07:55:54;12.70;;;11.60;;
35056;SDS011;21241;51.828;19.574;2023-01-29T07:58:22;11.60;;;10.60;;
35056;SDS011;21241;51.828;19.574;2023-01-29T08:00:50;11.40;;;10.40;;
35056;SDS011;21241;51.828;19.574;2023-01-29T08:03:18;11.40;;;10.40;;
35056;SDS011;21241;51.828;19.574;2023-01-29T08:05:46;11.70;;;10.70;;
35056;SDS011;21241;51.828;19.574;2023-01-29T08:08:14;11.80;;;10.70;;
35056;SDS011;21241;51.828;19.574;2023-01-29T08:10:42;11.70;;;10.70;;
35056;SDS011;21241;51.828;19.574;2023-01-29T08:13:10;11.10;;;10.10;;
35056;SDS011;21241;51.828;19.574;2023-01-29T08:15:37;11.90;;;10.90;;
35056;SDS011;21241;51.828;19.574;2023-01-29T08:18:05;12.20;;;11.20;;
35056;SDS011;21241;51.828;19.574;2023-01-29T08:20:33;12.50;;;11.40;;
35056;SDS011;21241;51.828;19.574;2023-01-29T08:23:02;11.20;;;10.20;;
35056;SDS011;21241;51.828;19.574;2023-01-29T08:25:34;11.80;;;10.80;;
35056;SDS011;21241;51.828;19.574;2023-01-29T08:28:02;12.00;;;11.00;;
35056;SDS011;21241;51.828;19.574;2023-01-29T08:30:31;11.70;;;10.60;;
35056;SDS011;21241;51.828;19.574;2023-01-29T08:33:00;11.80;;;10.70;;
35056;SDS011;21241;51.828;19.574;2023-01-29T08:35:30;11.40;;;10.40;;
35056;SDS011;21241;51.828;19.574;2023-01-29T08:37:59;11.70;;;10.70;;
35056;SDS011;21241;51.828;19.574;2023-01-29T08:40:28;10.60;;;9.60;;
35056;SDS011;21241;51.828;19.574;2023-01-29T08:43:00;11.70;;;10.70;;
35056;SDS011;21241;51.828;19.574;2023-01-29T08:45:36;11.50;;;10.50;;
35056;SDS011;21241;51.828;19.574;2023-01-29T08:48:05;11.80;;;10.90;;
35056;SDS011;21241;51.828;19.574;2023-01-29T08:50:34;10.60;;;9.80;;
35056;SDS011;21241;51.828;19.574;2023-01-29T08:53:03;10.90;;;10.00;;
35056;SDS011;21241;51.828;19.574;2023-01-29T08:55:34;11.70;;;10.60;;
35056;SDS011;21241;51.828;19.574;2023-01-29T08:58:04;13.40;;;12.20;;
35056;SDS011;21241;51.828;19.574;2023-01-29T09:00:33;13.00;;;11.80;;
35056;SDS011;21241;51.828;19.574;2023-01-29T09:03:01;13.20;;;11.90;;
35056;SDS011;21241;51.828;19.574;2023-01-29T09:05:29;13.90;;;12.50;;
35056;SDS011;21241;51.828;19.574;2023-01-29T09:07:57;11.60;;;10.70;;
35056;SDS011;21241;51.828;19.574;2023-01-29T09:10:25;12.20;;;11.20;;
35056;SDS011;21241;51.828;19.574;2023-01-29T09:12:53;13.70;;;12.40;;
35056;SDS011;21241;51.828;19.574;2023-01-29T09:15:21;12.10;;;11.10;;
35056;SDS011;21241;51.828;19.574;2023-01-29T09:17:49;12.60;;;11.50;;
35056;SDS011;21241;51.828;19.574;2023-01-29T09:20:16;12.50;;;11.50;;
35056;SDS011;21241;51.828;19.574;2023-01-29T09:22:45;14.00;;;12.70;;
35056;SDS011;21241;51.828;19.574;2023-01-29T09:25:13;14.20;;;13.00;;
35056;SDS011;21241;51.828;19.574;2023-01-29T09:27:42;15.30;;;13.90;;
35056;SDS011;21241;51.828;19.574;2023-01-29T09:30:09;15.60;;;14.20;;
35056;SDS011;21241;51.828;19.574;2023-01-29T09:32:38;16.90;;;15.40;;
35056;SDS011;21241;51.828;19.574;2023-01-29T09:35:22;19.60;;;18.00;;
35056;SDS011;21241;51.828;19.574;2023-01-29T09:37:50;14.80;;;13.50;;
35056;SDS011;21241;51.828;19.574;2023-01-29T09:40:42;15.10;;;13.70;;
35056;SDS011;21241;51.828;19.574;2023-01-29T09:45:57;17.10;;;15.50;;
35056;SDS011;21241;51.828;19.574;2023-01-29T09:48:32;17.80;;;16.00;;
35056;SDS011;21241;51.828;19.574;2023-01-29T09:51:02;18.60;;;17.20;;
35056;SDS011;21241;51.828;19.574;2023-01-29T09:53:39;17.50;;;16.20;;
35056;SDS011;21241;51.828;19.574;2023-01-29T09:56:15;16.70;;;15.20;;
35056;SDS011;21241;51.828;19.574;2023-01-29T09:58:47;18.40;;;16.60;;
35056;SDS011;21241;51.828;19.574;2023-01-29T10:07:03;22.00;;;18.80;;
35056;SDS011;21241;51.828;19.574;2023-01-29T10:12:14;19.00;;;17.40;;
35056;SDS011;21241;51.828;19.574;2023-01-29T10:15:17;20.00;;;18.10;;
35056;SDS011;21241;51.828;19.574;2023-01-29T10:18:04;18.90;;;17.20;;
35056;SDS011;21241;51.828;19.574;2023-01-29T10:23:49;19.10;;;17.40;;
35056;SDS011;21241;51.828;19.574;2023-01-29T10:26:22;17.80;;;16.30;;
35056;SDS011;21241;51.828;19.574;2023-01-29T10:28:51;17.70;;;16.40;;
35056;SDS011;21241;51.828;19.574;2023-01-29T10:31:24;18.20;;;16.70;;
35056;SDS011;21241;51.828;19.574;2023-01-29T10:33:57;19.10;;;17.60;;
35056;SDS011;21241;51.828;19.574;2023-01-29T10:36:33;19.80;;;18.10;;
35056;SDS011;21241;51.828;19.574;2023-01-29T10:39:08;19.90;;;18.30;;
35056;SDS011;21241;51.828;19.574;2023-01-29T10:44:55;18.90;;;17.30;;
35056;SDS011;21241;51.828;19.574;2023-01-29T10:58:23;23.90;;;21.90;;
35056;SDS011;21241;51.828;19.574;2023-01-29T11:01:08;21.90;;;19.90;;
35056;SDS011;21241;51.828;19.574;2023-01-29T11:03:36;22.90;;;21.00;;
35056;SDS011;21241;51.828;19.574;2023-01-29T11:08:35;22.50;;;20.70;;
35056;SDS011;21241;51.828;19.574;2023-01-29T11:11:07;22.90;;;21.00;;
35056;SDS011;21241;51.828;19.574;2023-01-29T11:13:43;23.90;;;22.00;;
35056;SDS011;21241;51.828;19.574;2023-01-29T11:16:13;23.30;;;21.40;;
35056;SDS011;21241;51.828;19.574;2023-01-29T11:21:27;25.90;;;23.80;;
35056;SDS011;21241;51.828;19.574;2023-01-29T11:24:05;26.30;;;24.10;;
35056;SDS011;21241;51.828;19.574;2023-01-29T11:26:37;23.90;;;21.90;;
35056;SDS011;21241;51.828;19.574;2023-01-29T11:29:26;25.50;;;23.30;;
35056;SDS011;21241;51.828;19.574;2023-01-29T11:31:56;25.30;;;23.10;;
35056;SDS011;21241;51.828;19.574;2023-01-29T11:34:25;25.80;;;23.70;;
35056;SDS011;21241;51.828;19.574;2023-01-29T11:37:00;26.90;;;24.70;;
35056;SDS011;21241;51.828;19.574;2023-01-29T11:39:38;28.60;;;26.10;;
35056;SDS011;21241;51.828;19.574;2023-01-29T11:42:17;26.50;;;24.30;;
35056;SDS011;21241;51.828;19.574;2023-01-29T11:44:49;28.40;;;25.90;;
35056;SDS011;21241;51.828;19.574;2023-01-29T11:47:17;30.30;;;27.50;;
35056;SDS011;21241;51.828;19.574;2023-01-29T11:49:47;27.10;;;24.80;;
35056;SDS011;21241;51.828;19.574;2023-01-29T11:52:26;29.30;;;26.70;;
35056;SDS011;21241;51.828;19.574;2023-01-29T11:55:02;26.90;;;24.60;;
35056;SDS011;21241;51.828;19.574;2023-01-29T11:57:33;26.30;;;24.30;;
35056;SDS011;21241;51.828;19.574;2023-01-29T12:00:06;27.80;;;25.50;;
35056;SDS011;21241;51.828;19.574;2023-01-29T12:02:40;27.10;;;24.80;;
35056;SDS011;21241;51.828;19.574;2023-01-29T12:07:45;27.90;;;25.70;;
35056;SDS011;21241;51.828;19.574;2023-01-29T12:10:32;26.80;;;24.50;;
35056;SDS011;21241;51.828;19.574;2023-01-29T12:13:05;27.90;;;25.50;;
35056;SDS011;21241;51.828;19.574;2023-01-29T12:15:33;40.20;;;36.70;;
35056;SDS011;21241;51.828;19.574;2023-01-29T12:20:44;55.50;;;50.70;;
35056;SDS011;21241;51.828;19.574;2023-01-29T12:23:22;27.00;;;24.80;;
35056;SDS011;21241;51.828;19.574;2023-01-29T12:25:58;32.00;;;29.40;;
35056;SDS011;21241;51.828;19.574;2023-01-29T12:31:05;31.00;;;28.20;;
35056;SDS011;21241;51.828;19.574;2023-01-29T12:33:52;30.50;;;27.80;;
35056;SDS011;21241;51.828;19.574;2023-01-29T12:36:33;35.80;;;32.20;;
35056;SDS011;21241;51.828;19.574;2023-01-29T12:39:08;33.10;;;30.20;;
35056;SDS011;21241;51.828;19.574;2023-01-29T12:47:27;34.60;;;31.50;;
35056;SDS011;21241;51.828;19.574;2023-01-29T12:50:08;35.20;;;32.00;;
35056;SDS011;21241;51.828;19.574;2023-01-29T12:52:55;43.90;;;39.90;;
35056;SDS011;21241;51.828;19.574;2023-01-29T12:55:39;30.50;;;28.00;;
35056;SDS011;21241;51.828;19.574;2023-01-29T12:58:16;39.60;;;36.10;;
35056;SDS011;21241;51.828;19.574;2023-01-29T13:00:50;33.40;;;30.50;;
35056;SDS011;21241;51.828;19.574;2023-01-29T13:03:20;33.90;;;31.10;;
35056;SDS011;21241;51.828;19.574;2023-01-29T13:06:10;31.60;;;28.90;;
35056;SDS011;21241;51.828;19.574;2023-01-29T13:08:43;34.00;;;31.20;;
35056;SDS011;21241;51.828;19.574;2023-01-29T13:11:20;34.00;;;31.10;;
35056;SDS011;21241;51.828;19.574;2023-01-29T13:13:55;33.70;;;30.90;;
35056;SDS011;21241;51.828;19.574;2023-01-29T13:16:32;37.50;;;34.20;;
35056;SDS011;21241;51.828;19.574;2023-01-29T13:19:05;33.20;;;30.30;;
35056;SDS011;21241;51.828;19.574;2023-01-29T13:21:36;32.60;;;29.80;;
35056;SDS011;21241;51.828;19.574;2023-01-29T13:24:20;33.40;;;30.50;;
35056;SDS011;21241;51.828;19.574;2023-01-29T13:26:49;32.90;;;30.10;;
35056;SDS011;21241;51.828;19.574;2023-01-29T13:31:56;33.90;;;31.00;;
35056;SDS011;21241;51.828;19.574;2023-01-29T13:34:29;35.90;;;32.80;;
35056;SDS011;21241;51.828;19.574;2023-01-29T13:37:03;33.40;;;30.60;;
35056;SDS011;21241;51.828;19.574;2023-01-29T13:39:37;33.20;;;30.30;;
35056;SDS011;21241;51.828;19.574;2023-01-29T13:42:24;37.40;;;34.10;;
35056;SDS011;21241;51.828;19.574;2023-01-29T13:45:00;34.00;;;31.00;;
35056;SDS011;21241;51.828;19.574;2023-01-29T13:47:30;35.10;;;32.00;;
35056;SDS011;21241;51.828;19.574;2023-01-29T13:55:03;37.10;;;33.90;;
35056;SDS011;21241;51.828;19.574;2023-01-29T14:00:58;32.40;;;29.70;;
35056;SDS011;21241;51.828;19.574;2023-01-29T14:06:35;35.30;;;32.20;;
35056;SDS011;21241;51.828;19.574;2023-01-29T14:09:28;37.70;;;34.40;;
35056;SDS011;21241;51.828;19.574;2023-01-29T14:14:58;64.40;;;58.40;;
35056;SDS011;21241;51.828;19.574;2023-01-29T14:17:29;50.40;;;45.60;;
35056;SDS011;21241;51.828;19.574;2023-01-29T14:20:00;46.60;;;41.90;;
35056;SDS011;21241;51.828;19.574;2023-01-29T14:22:30;46.10;;;42.10;;
35056;SDS011;21241;51.828;19.574;2023-01-29T14:25:02;45.30;;;41.30;;
35056;SDS011;21241;51.828;19.574;2023-01-29T14:27:31;42.00;;;38.40;;
35056;SDS011;21241;51.828;19.574;2023-01-29T14:30:00;39.10;;;35.70;;
35056;SDS011;21241;51.828;19.574;2023-01-29T14:32:32;40.70;;;37.10;;
35056;SDS011;21241;51.828;19.574;2023-01-29T14:35:20;39.50;;;36.00;;
35056;SDS011;21241;51.828;19.574;2023-01-29T14:37:51;38.90;;;35.50;;
35056;SDS011;21241;51.828;19.574;2023-01-29T14:40:22;44.80;;;40.80;;
35056;SDS011;21241;51.828;19.574;2023-01-29T14:43:02;33.00;;;30.10;;
35056;SDS011;21241;51.828;19.574;2023-01-29T14:55:54;48.90;;;44.50;;
35056;SDS011;21241;51.828;19.574;2023-01-29T14:58:48;64.10;;;57.90;;
35056;SDS011;21241;51.828;19.574;2023-01-29T15:01:20;68.40;;;62.30;;
35056;SDS011;21241;51.828;19.574;2023-01-29T15:03:51;50.10;;;45.70;;
35056;SDS011;21241;51.828;19.574;2023-01-29T15:06:43;44.90;;;40.80;;
35056;SDS011;21241;51.828;19.574;2023-01-29T15:09:15;41.90;;;38.10;;
35056;SDS011;21241;51.828;19.574;2023-01-29T15:12:02;47.70;;;43.50;;
35056;SDS011;21241;51.828;19.574;2023-01-29T15:14:35;56.60;;;50.90;;
35056;SDS011;21241;51.828;19.574;2023-01-29T15:19:42;69.40;;;63.00;;
35056;SDS011;21241;51.828;19.574;2023-01-29T15:22:12;58.00;;;52.40;;
35056;SDS011;21241;51.828;19.574;2023-01-29T15:25:01;52.00;;;47.20;;
35056;SDS011;21241;51.828;19.574;2023-01-29T15:27:31;43.80;;;39.90;;
35056;SDS011;21241;51.828;19.574;2023-01-29T15:30:00;42.40;;;38.60;;
35056;SDS011;21241;51.828;19.574;2023-01-29T15:32:32;44.20;;;40.00;;
35056;SDS011;21241;51.828;19.574;2023-01-29T15:35:08;45.90;;;41.90;;
35056;SDS011;21241;51.828;19.574;2023-01-29T15:37:42;48.70;;;44.20;;
35056;SDS011;21241;51.828;19.574;2023-01-29T15:40:14;40.50;;;36.60;;
35056;SDS011;21241;51.828;19.574;2023-01-29T15:42:44;43.70;;;39.60;;
35056;SDS011;21241;51.828;19.574;2023-01-29T15:47:57;39.60;;;36.10;;
35056;SDS011;21241;51.828;19.574;2023-01-29T15:50:28;39.50;;;35.90;;
35056;SDS011;21241;51.828;19.574;2023-01-29T15:52:59;40.30;;;36.70;;
35056;SDS011;21241;51.828;19.574;2023-01-29T15:55:28;39.40;;;35.60;;
35056;SDS011;21241;51.828;19.574;2023-01-29T15:57:57;39.20;;;35.60;;
35056;SDS011;21241;51.828;19.574;2023-01-29T16:00:26;42.00;;;38.30;;
35056;SDS011;21241;51.828;19.574;2023-01-29T16:02:56;38.70;;;35.20;;
35056;SDS011;21241;51.828;19.574;2023-01-29T16:05:26;40.10;;;36.60;;
35056;SDS011;21241;51.828;19.574;2023-01-29T16:07:55;38.10;;;34.60;;
35056;SDS011;21241;51.828;19.574;2023-01-29T16:10:27;37.90;;;34.50;;
35056;SDS011;21241;51.828;19.574;2023-01-29T16:12:58;40.80;;;36.80;;
35056;SDS011;21241;51.828;19.574;2023-01-29T16:15:30;42.10;;;38.00;;
35056;SDS011;21241;51.828;19.574;2023-01-29T16:18:01;43.70;;;39.50;;
35056;SDS011;21241;51.828;19.574;2023-01-29T16:23:03;42.10;;;38.30;;
35056;SDS011;21241;51.828;19.574;2023-01-29T16:25:32;41.90;;;38.10;;
35056;SDS011;21241;51.828;19.574;2023-01-29T16:28:02;44.50;;;40.50;;
35056;SDS011;21241;51.828;19.574;2023-01-29T16:30:31;44.40;;;40.40;;
35056;SDS011;21241;51.828;19.574;2023-01-29T16:33:00;47.50;;;42.90;;
35056;SDS011;21241;51.828;19.574;2023-01-29T16:35:29;45.90;;;41.30;;
35056;SDS011;21241;51.828;19.574;2023-01-29T16:37:58;44.30;;;39.90;;
35056;SDS011;21241;51.828;19.574;2023-01-29T16:40:33;46.40;;;42.00;;
35056;SDS011;21241;51.828;19.574;2023-01-29T16:48:50;44.00;;;39.90;;
35056;SDS011;21241;51.828;19.574;2023-01-29T16:56:33;43.50;;;39.50;;
35056;SDS011;21241;51.828;19.574;2023-01-29T16:59:02;44.00;;;39.70;;
35056;SDS011;21241;51.828;19.574;2023-01-29T17:01:31;41.50;;;37.70;;
35056;SDS011;21241;51.828;19.574;2023-01-29T17:04:06;45.10;;;41.10;;